This is the latest recevied weather packets stored in our database for station/object OK1JIL-13. If no packets are shown the sender has not sent any weather packets the latest 10 day(s).
| Time | Temp. | Humidity | Pressure | Rain* | Wind** | Luminosity | Snow |
|---|---|---|---|---|---|---|---|
| 1777516993 | 2.78° C | 37% | 1029.3 hPa | - | - | - | - |
| 1777516393 | 2.22° C | 38% | 1029.3 hPa | - | - | - | - |
| 1777515793 | 2.78° C | 38% | 1029.3 hPa | - | - | - | - |
| 1777515193 | 3.33° C | 36% | 1029.3 hPa | - | - | - | - |
| 1777514593 | 2.78° C | 37% | 1029.3 hPa | - | - | - | - |
| 1777513994 | 3.89° C | 35% | 1029.3 hPa | - | - | - | - |
| 1777513393 | 2.78° C | 37% | 1029.2 hPa | - | - | - | - |
| 1777512793 | 2.78° C | 37% | 1029.1 hPa | - | - | - | - |
| 1777512193 | 1.67° C | 40% | 1029.2 hPa | - | - | - | - |
| 1777511593 | 2.78° C | 36% | 1029.1 hPa | - | - | - | - |
| 1777510393 | 1.67° C | 39% | 1029 hPa | - | - | - | - |
| 1777509793 | 2.22° C | 38% | 1028.9 hPa | - | - | - | - |
| 1777509193 | 1.67° C | 39% | 1028.9 hPa | - | - | - | - |
| 1777508593 | 1.67° C | 40% | 1028.9 hPa | - | - | - | - |
| 1777507993 | 2.22° C | 38% | 1029 hPa | - | - | - | - |
| 1777507393 | 2.22° C | 37% | 1029 hPa | - | - | - | - |
| 1777506793 | 2.22° C | 37% | 1029.1 hPa | - | - | - | - |
| 1777506193 | 2.22° C | 38% | 1029.1 hPa | - | - | - | - |
| 1777505593 | 1.67° C | 39% | 1029.1 hPa | - | - | - | - |
| 1777504993 | 1.67° C | 39% | 1029.2 hPa | - | - | - | - |
| 1777504394 | 1.67° C | 39% | 1029.2 hPa | - | - | - | - |
| 1777503793 | 1.67° C | 39% | 1029.2 hPa | - | - | - | - |
| 1777503193 | 1.67° C | 39% | 1029.2 hPa | - | - | - | - |
| 1777502593 | 1.67° C | 39% | 1029.1 hPa | - | - | - | - |
| 1777501993 | 1.67° C | 39% | 1028.9 hPa | - | - | - | - |
* Rain since midnight (hover to see other rain measurements)
** Current wind speed in m/s (hover to see current wind gust speed)